Monday, January 26, 2015, 11:24 AM EST

KJYO, Leesburg / Godfrey

Location: Leesburg, VA, United States Lat: 39.083
Local Time: 11:24 AM EST (16:24 GMT) Lon: -77.567
Time Zone: US/Eastern Elev: 390 ft

Show me the last for .
Show Decoded

2015-01-26 10:55 METAR KJYO 261555Z AUTO 05005KT 7SM OVC006 00/00 A2981 RMK AO2 =
2015-01-26 10:35 METAR KJYO 261535Z AUTO 04005KT 4SM -SN OVC006 00/00 A2981 RMK AO2 =
2015-01-26 10:15 METAR KJYO 261515Z AUTO 06006KT 2 1/2SM -SN OVC006 00/00 A2980 RMK AO2 LTG DSNT
                 S =
2015-01-26 09:55 METAR KJYO 261455Z AUTO 06006KT 2 1/2SM -SN OVC006 00/00 A2980 RMK AO2 =
2015-01-26 09:35 METAR KJYO 261435Z AUTO 05006KT 2 1/2SM -SN OVC006 00/00 A2980 RMK AO2 =
2015-01-26 09:15 METAR KJYO 261415Z AUTO 09005KT 1 3/4SM -SN OVC006 00/00 A2980 RMK AO2 =
2015-01-26 08:55 METAR KJYO 261355Z AUTO 06006KT 1 1/2SM -SN OVC006 00/00 A2980 RMK AO2 =
2015-01-26 08:35 METAR KJYO 261335Z AUTO 08004KT 1 1/2SM -SN OVC006 00/00 A2980 RMK AO2 =
2015-01-26 08:15 METAR KJYO 261315Z AUTO 07005KT 1 1/4SM -SN OVC004 00/00 A2980 RMK AO2 =
2015-01-26 07:55 METAR KJYO 261255Z AUTO 09007G15KT 050V110 1 1/2SM -SN OVC004 01/01 A2980 RMK
                 AO2 P0001 =
2015-01-26 07:35 METAR KJYO 261235Z AUTO 08008KT 2SM -SN OVC004 01/01 A2980 RMK AO2 P0001 =
2015-01-26 07:15 METAR KJYO 261215Z AUTO 08005G14KT 3SM -SN OVC006 01/01 A2980 RMK AO2 P0001 =
2015-01-26 06:55 METAR KJYO 261155Z AUTO 08005KT 050V110 5SM -SN OVC006 01/01 A2979 RMK AO2 P0002
                 =
2015-01-26 06:35 METAR KJYO 261135Z AUTO 07006G15KT 5SM -RA OVC006 02/02 A2979 RMK AO2 P0001 =
2015-01-26 06:15 METAR KJYO 261115Z AUTO 09010G15KT 050V110 5SM -RA OVC006 02/02 A2978 RMK AO2
                 P0001 =
2015-01-26 05:55 METAR KJYO 261055Z AUTO 08007KT 4SM -RA OVC006 03/03 A2978 RMK AO2 =
2015-01-26 05:35 METAR KJYO 261035Z AUTO 08006KT 5SM RA OVC008 03/03 A2978 RMK AO2 =
2015-01-26 05:15 METAR KJYO 261015Z AUTO 07007KT 5SM -RA OVC008 03/03 A2978 RMK AO2 =
2015-01-26 04:55 METAR KJYO 260955Z AUTO 07004KT 5SM -RA OVC010 03/03 A2978 RMK AO2 =
2015-01-26 04:35 METAR KJYO 260935Z AUTO 07007KT 7SM -DZ OVC012 03/03 A2979 RMK AO2 =
2015-01-26 04:15 METAR KJYO 260915Z AUTO 06006KT 7SM -RA BKN012 OVC042 03/03 A2979 RMK AO2 =
2015-01-26 03:55 METAR KJYO 260855Z AUTO 06005KT 10SM SCT012 OVC042 03/03 A2980 RMK AO2 =
2015-01-26 03:35 METAR KJYO 260835Z AUTO 04006KT 7SM OVC040 03/03 A2980 RMK AO2 =
2015-01-26 03:15 METAR KJYO 260815Z AUTO 04005KT 7SM OVC040 03/03 A2980 RMK AO2 =
2015-01-26 02:55 METAR KJYO 260755Z AUTO 04005KT 7SM OVC040 03/03 A2981 RMK AO2 =
2015-01-26 02:35 METAR KJYO 260735Z AUTO 04004KT 7SM BKN040 OVC050 03/03 A2981 RMK AO2 =
2015-01-26 02:15 METAR KJYO 260715Z AUTO 03004KT 5SM DZ OVC048 03/03 A2981 RMK AO2 =
2015-01-26 01:55 METAR KJYO 260655Z AUTO 35003KT 7SM -DZ OVC050 03/03 A2982 RMK AO2 =
2015-01-26 01:35 METAR KJYO 260635Z AUTO 03003KT 10SM OVC050 03/03 A2982 RMK AO2 =
2015-01-26 00:55 METAR KJYO 260555Z AUTO 00000KT 10SM BKN049 OVC060 03/03 A2983 RMK AO2 =
2015-01-26 00:35 METAR KJYO 260535Z AUTO 00000KT 10SM OVC049 04/03 A2984 RMK AO2 =
2015-01-26 00:15 METAR KJYO 260515Z AUTO 00000KT 10SM -DZ OVC047 04/03 A2983 RMK AO2 =
2015-01-25 23:55 METAR KJYO 260455Z AUTO 00000KT 10SM OVC045 04/03 A2984 RMK AO2 =
2015-01-25 23:35 METAR KJYO 260435Z AUTO 02003KT 10SM OVC045 04/03 A2984 RMK AO2 =
2015-01-25 23:15 METAR KJYO 260415Z AUTO 01003KT 10SM OVC045 05/03 A2985 RMK AO2 =
2015-01-25 22:55 METAR KJYO 260355Z AUTO 00000KT 10SM OVC047 05/03 A2984 RMK AO2 =
2015-01-25 22:35 METAR KJYO 260335Z AUTO 00000KT 10SM OVC047 05/02 A2985 RMK AO2 =
2015-01-25 22:15 METAR KJYO 260315Z AUTO 01003KT 10SM BKN047 OVC075 05/02 A2985 RMK AO2 =
2015-01-25 21:55 METAR KJYO 260255Z AUTO 00000KT 10SM OVC075 05/02 A2984 RMK AO2 =
2015-01-25 21:35 METAR KJYO 260235Z AUTO 04003KT 10SM SCT046 OVC075 06/02 A2985 RMK AO2 =
2015-01-25 21:15 METAR KJYO 260215Z AUTO 04004KT 10SM BKN046 OVC075 05/02 A2985 RMK AO2 =
2015-01-25 20:55 METAR KJYO 260155Z AUTO 00000KT 10SM BKN046 OVC070 05/02 A2986 RMK AO2 =
2015-01-25 20:35 METAR KJYO 260135Z AUTO 00000KT 10SM SCT048 OVC070 05/02 A2986 RMK AO2 =
2015-01-25 20:15 METAR KJYO 260115Z AUTO 00000KT 10SM SCT046 OVC070 05/02 A2986 RMK AO2 =
2015-01-25 19:55 METAR KJYO 260055Z AUTO 00000KT 10SM BKN044 OVC070 06/02 A2985 RMK AO2 =
2015-01-25 19:35 METAR KJYO 260035Z AUTO 00000KT 10SM BKN042 OVC070 06/02 A2986 RMK AO2 =
2015-01-25 19:15 METAR KJYO 260015Z AUTO 00000KT 10SM SCT042 OVC070 06/02 A2985 RMK AO2 =
2015-01-25 18:55 METAR KJYO 252355Z AUTO 00000KT 10SM OVC060 06/02 A2985 RMK AO2 =
2015-01-25 18:35 METAR KJYO 252335Z AUTO 00000KT 10SM OVC060 06/02 A2985 RMK AO2 =
2015-01-25 18:15 METAR KJYO 252315Z AUTO 00000KT 10SM OVC050 07/01 A2984 RMK AO2 =
2015-01-25 17:55 METAR KJYO 252255Z AUTO 00000KT 10SM OVC050 07/01 A2984 RMK AO2 =
2015-01-25 17:35 METAR KJYO 252235Z AUTO 00000KT 10SM SCT040 OVC050 07/01 A2983 RMK AO2 =
2015-01-25 17:15 METAR KJYO 252215Z AUTO 23004KT 10SM SCT042 OVC050 07/01 A2984 RMK AO2 =
2015-01-25 16:55 METAR KJYO 252155Z AUTO 20003KT 10SM VCTS OVC060 07/01 A2982 RMK AO2 =
2015-01-25 16:35 METAR KJYO 252135Z AUTO 20004KT 10SM BKN060 OVC070 07/01 A2982 RMK AO2 =
2015-01-25 16:15 METAR KJYO 252115Z AUTO 20006KT 10SM OVC070 08/01 A2983 RMK AO2 =
2015-01-25 15:55 METAR KJYO 252055Z AUTO 20006KT 10SM SCT050 BKN070 OVC090 08/01 A2983 RMK AO2 =
2015-01-25 15:35 METAR KJYO 252035Z AUTO 19006KT 10SM BKN080 OVC090 08/01 A2982 RMK AO2 =
2015-01-25 15:15 METAR KJYO 252015Z AUTO 19008KT 10SM BKN100 BKN120 07/01 A2981 RMK AO2 =
2015-01-25 14:55 METAR KJYO 251955Z AUTO 19008KT 10SM SCT075 SCT090 BKN110 08/01 A2981 RMK AO2 =
2015-01-25 14:35 METAR KJYO 251935Z AUTO 20007KT 10SM BKN080 OVC090 08/01 A2981 RMK AO2 =
2015-01-25 14:15 METAR KJYO 251915Z AUTO 20004KT 10SM BKN080 BKN090 08/01 A2981 RMK AO2 =
2015-01-25 13:55 METAR KJYO 251855Z AUTO 22004KT 10SM BKN085 08/01 A2982 RMK AO2 =
2015-01-25 13:35 METAR KJYO 251835Z AUTO 25003KT 10SM SCT075 OVC090 08/01 A2983 RMK AO2 =
2015-01-25 13:15 METAR KJYO 251815Z AUTO 22003KT 10SM OVC090 08/01 A2983 RMK AO2 =
2015-01-25 12:55 METAR KJYO 251755Z AUTO 25004KT 10SM OVC110 07/01 A2983 RMK AO2 =
2015-01-25 12:35 METAR KJYO 251735Z AUTO 20004KT 10SM BKN110 07/01 A2984 RMK AO2 =
2015-01-25 12:15 METAR KJYO 251715Z AUTO 27003KT 10SM SCT120 07/01 A2984 RMK AO2 =
2015-01-25 11:55 METAR KJYO 251655Z AUTO 21003KT 10SM CLR 07/01 A2984 RMK AO2 =
2015-01-25 11:35 METAR KJYO 251635Z AUTO 26005KT 10SM SCT120 07/01 A2984 RMK AO2 =

Support USWX by starting your Amazon purchase here.